Hope, Arkansas
Current Conditions -  °F | °C
As of 9:53 PM on Saturday 24 Jan 2015 (Local Time) from KTXK Reporting Station
Clear Clear  
Wind Chill: 40°   Ceiling: Unl
Heat Index: 44°   Visibility: 10mi
Dew Point: 36°   Wind: 8mph
Humidity: 73%   Direction: 220°SW
Pressure: 29.98"   Gusts: NA
Location:  33.67°N, 93.59°W
Report Text: KTXK 250353Z AUTO 22007KT 10SM CLR 07/02 A2998 RMK AO2 SLP152 T00670022
Loading
Personal Weather Stations






























Interactive Weather Map New forecast layout! Learn more

10-Day Weather Forecast

Advertisements
Track Severe Weather on mobile